createdAt,value
2022-11-03T00:02:04.921Z,100804.06
2022-11-03T00:04:32.678Z,100781.50
2022-11-03T00:06:59.389Z,100802.06
2022-11-03T00:09:27.711Z,100800.47
2022-11-03T00:11:55.460Z,100794.13
2022-11-03T00:14:23.088Z,100797.09
2022-11-03T00:16:52.104Z,100793.19
2022-11-03T00:19:19.891Z,100774.31
2022-11-03T00:21:47.860Z,100796.81
2022-11-03T00:24:15.556Z,100760.63
2022-11-03T00:26:43.229Z,100763.63
2022-11-03T00:29:12.727Z,100778.28
2022-11-03T00:31:41.657Z,100770.00
2022-11-03T00:34:11.391Z,100765.41
2022-11-03T00:36:40.231Z,100774.16
2022-11-03T00:39:08.140Z,100778.31
2022-11-03T00:41:36.073Z,100759.09
2022-11-03T00:44:03.923Z,100779.66
2022-11-03T00:46:35.055Z,100771.94
2022-11-03T00:49:02.963Z,100762.38
2022-11-03T00:51:33.475Z,100762.75
2022-11-03T00:54:02.349Z,100762.31
2022-11-03T00:56:31.390Z,100736.22
2022-11-03T00:59:00.220Z,100736.50
2022-11-03T01:01:32.265Z,100735.66
2022-11-03T01:04:17.929Z,100708.19
2022-11-03T01:06:51.369Z,100725.16
2022-11-03T01:09:19.938Z,100704.94
2022-11-03T01:11:58.945Z,100698.31
2022-11-03T01:14:30.537Z,100696.63
2022-11-03T01:16:58.185Z,100685.19
2022-11-03T01:19:26.327Z,100688.34
2022-11-03T01:21:55.407Z,100677.41
2022-11-03T01:24:23.403Z,100678.34
2022-11-03T01:26:51.242Z,100687.16
2022-11-03T01:29:18.899Z,100666.47
2022-11-03T01:31:47.554Z,100672.22
2022-11-03T01:34:16.595Z,100659.69
2022-11-03T01:36:44.763Z,100675.81
2022-11-03T01:39:14.710Z,100647.44
2022-11-03T01:41:43.024Z,100644.53
2022-11-03T01:44:32.370Z,100644.88
2022-11-03T01:47:17.457Z,100641.03
2022-11-03T01:49:48.801Z,100646.56
2022-11-03T01:52:19.899Z,100641.56
2022-11-03T01:54:51.389Z,100628.38
2022-11-03T01:57:24.208Z,100627.81
2022-11-03T01:59:52.186Z,100642.91
2022-11-03T02:02:19.935Z,100634.59
2022-11-03T02:04:47.772Z,100641.38
2022-11-03T02:07:20.486Z,100638.63
2022-11-03T02:09:49.511Z,100617.75
2022-11-03T02:12:17.652Z,100619.78
2022-11-03T02:14:52.498Z,100608.13
2022-11-03T02:17:21.980Z,100621.38
2022-11-03T02:19:52.443Z,100622.50
2022-11-03T02:22:35.165Z,100615.44
2022-11-03T02:25:13.339Z,100608.16
2022-11-03T02:27:42.541Z,100606.66
2022-11-03T02:30:11.083Z,100600.97
2022-11-03T02:32:44.887Z,100584.44
2022-11-03T02:35:15.183Z,100600.03
2022-11-03T02:37:44.868Z,100595.88
2022-11-03T02:40:15.467Z,100590.97
2022-11-03T02:42:47.517Z,100581.78
2022-11-03T02:45:17.612Z,100577.56
2022-11-03T02:47:45.928Z,100567.97
2022-11-03T02:50:13.623Z,100564.19
2022-11-03T02:52:42.849Z,100582.63
2022-11-03T02:55:14.293Z,100561.72
2022-11-03T02:57:48.406Z,100564.53
2022-11-03T03:00:17.532Z,100561.22
2022-11-03T03:02:53.187Z,100566.22
2022-11-03T03:05:22.587Z,100563.38
2022-11-03T03:07:54.016Z,100568.91
2022-11-03T03:10:23.701Z,100569.34
2022-11-03T03:12:54.825Z,100558.94
2022-11-03T03:15:24.946Z,100535.66
2022-11-03T03:17:55.023Z,100541.03
2022-11-03T03:20:25.830Z,100546.31
2022-11-03T03:22:57.631Z,100553.75
2022-11-03T03:25:28.046Z,100541.13
2022-11-03T03:28:01.367Z,100535.31
2022-11-03T03:30:30.603Z,100528.47
2022-11-03T03:32:59.183Z,100536.00
2022-11-03T03:35:29.818Z,100522.88
2022-11-03T03:38:01.443Z,100545.81
2022-11-03T03:40:32.380Z,100525.06
2022-11-03T03:43:02.527Z,100536.09
2022-11-03T03:45:31.559Z,100528.63
2022-11-03T03:47:59.353Z,100531.13
2022-11-03T03:50:28.299Z,100531.63
2022-11-03T03:52:56.843Z,100527.53
2022-11-03T03:55:27.789Z,100530.38
2022-11-03T03:57:59.450Z,100543.06
2022-11-03T04:00:29.635Z,100516.69
2022-11-03T04:02:57.991Z,100528.63
2022-11-03T04:05:26.088Z,100515.84
2022-11-03T04:07:53.846Z,100525.25
2022-11-03T04:10:23.182Z,100525.88
2022-11-03T04:13:08.382Z,100520.22
2022-11-03T04:15:54.775Z,100513.81
2022-11-03T04:18:40.560Z,100491.50
2022-11-03T04:21:27.757Z,100492.13
2022-11-03T04:23:55.395Z,100506.94
2022-11-03T04:26:23.944Z,100495.91
2022-11-03T04:28:51.833Z,100493.28
2022-11-03T04:31:21.849Z,100496.41
2022-11-03T04:33:50.186Z,100494.50
2022-11-03T04:36:20.137Z,100473.25
2022-11-03T04:38:48.415Z,100477.66
2022-11-03T04:41:19.340Z,100481.28
2022-11-03T04:43:47.388Z,100481.81
2022-11-03T04:46:18.255Z,100458.34
2022-11-03T04:48:47.600Z,100460.00
2022-11-03T04:51:17.448Z,100464.63
2022-11-03T04:53:48.886Z,100458.59
2022-11-03T04:56:18.073Z,100467.66
2022-11-03T04:58:47.921Z,100459.94
2022-11-03T05:01:22.499Z,100467.56
2022-11-03T05:03:54.676Z,100438.72
2022-11-03T05:06:23.476Z,100453.38
2022-11-03T05:08:53.583Z,100436.66
2022-11-03T05:11:23.311Z,100446.41
2022-11-03T05:13:51.376Z,100440.25
2022-11-03T05:16:19.459Z,100421.19
2022-11-03T05:18:50.027Z,100431.56
2022-11-03T05:21:20.776Z,100431.34
2022-11-03T05:23:50.276Z,100435.59
2022-11-03T05:26:19.974Z,100415.06
2022-11-03T05:28:50.023Z,100425.94
2022-11-03T05:31:24.408Z,100427.88
2022-11-03T05:33:53.823Z,100414.00
2022-11-03T05:36:24.557Z,100431.16
2022-11-03T05:38:53.145Z,100416.31
2022-11-03T05:41:24.847Z,100406.06
2022-11-03T05:43:56.488Z,100411.03
2022-11-03T05:46:25.351Z,100416.44
2022-11-03T05:48:53.105Z,100410.72
2022-11-03T05:51:25.336Z,100396.31
2022-11-03T05:53:55.341Z,100419.94
2022-11-03T05:56:24.996Z,100410.81
2022-11-03T05:58:53.731Z,100395.28
2022-11-03T06:01:26.190Z,100405.84
2022-11-03T06:03:54.241Z,100417.16
2022-11-03T06:06:30.869Z,100403.69
2022-11-03T06:09:00.286Z,100386.16
2022-11-03T06:11:29.744Z,100392.53
2022-11-03T06:13:58.967Z,100391.88
2022-11-03T06:16:39.660Z,100369.56
2022-11-03T06:19:18.476Z,100382.44
2022-11-03T06:21:47.720Z,100370.28
2022-11-03T06:24:15.992Z,100362.03
2022-11-03T06:26:44.688Z,100376.75
2022-11-03T06:29:16.429Z,100362.34
2022-11-03T06:31:44.750Z,100388.38
2022-11-03T06:34:32.431Z,100371.81
2022-11-03T06:37:12.645Z,100377.63
2022-11-03T06:39:41.368Z,100351.69
2022-11-03T06:42:12.655Z,100370.78
2022-11-03T06:44:41.945Z,100360.13
2022-11-03T06:47:19.608Z,100370.97
2022-11-03T06:49:47.806Z,100361.28
2022-11-03T06:52:24.596Z,100352.59
2022-11-03T06:54:56.474Z,100354.06
2022-11-03T06:57:24.103Z,100352.59
2022-11-03T07:00:06.664Z,100358.22
2022-11-03T07:02:54.799Z,100347.63
2022-11-03T07:05:23.561Z,100346.69
2022-11-03T07:07:54.274Z,100347.66
2022-11-03T07:10:24.178Z,100367.91
2022-11-03T07:12:51.851Z,100355.66
2022-11-03T07:15:26.178Z,100346.72
2022-11-03T07:17:54.239Z,100338.59
2022-11-03T07:20:22.744Z,100348.75
2022-11-03T07:22:53.262Z,100328.97
2022-11-03T07:25:22.480Z,100345.69
2022-11-03T07:27:52.112Z,100338.19
2022-11-03T07:30:21.834Z,100335.66
2022-11-03T07:32:51.010Z,100338.63
2022-11-03T07:35:53.235Z,100327.66
2022-11-03T07:38:22.885Z,100336.56
2022-11-03T07:40:51.336Z,100327.00
2022-11-03T07:43:20.913Z,100323.06
2022-11-03T07:45:50.388Z,100329.66
2022-11-03T07:48:23.627Z,100331.09
2022-11-03T07:50:52.975Z,100321.09
2022-11-03T07:53:26.296Z,100317.81
2022-11-03T07:55:56.491Z,100319.03
2022-11-03T07:58:35.752Z,100311.59
2022-11-03T08:01:15.715Z,100315.50
2022-11-03T08:03:46.094Z,100292.78
2022-11-03T08:06:17.188Z,100304.84
2022-11-03T08:08:48.845Z,100302.19
2022-11-03T08:11:16.575Z,100282.03
2022-11-03T08:13:44.252Z,100289.38
2022-11-03T08:16:11.926Z,100310.19
2022-11-03T08:18:39.742Z,100312.47
2022-11-03T08:21:07.445Z,100298.25
2022-11-03T08:23:35.073Z,100286.31
2022-11-03T08:26:04.081Z,100281.00
2022-11-03T08:28:31.904Z,100281.59
2022-11-03T08:31:02.249Z,100287.84
2022-11-03T08:36:04.030Z,100269.16
2022-11-03T08:38:31.888Z,100270.00
2022-11-03T08:40:59.544Z,100281.44
2022-11-03T08:43:28.728Z,100257.97
2022-11-03T08:45:57.301Z,100268.56
2022-11-03T08:48:28.647Z,100271.22
2022-11-03T08:50:56.962Z,100250.13
2022-11-03T08:53:26.061Z,100263.34
2022-11-03T08:55:53.798Z,100272.03
2022-11-03T08:58:21.544Z,100238.03
2022-11-03T09:00:51.001Z,100253.63
2022-11-03T09:03:18.757Z,100256.00
2022-11-03T09:05:46.452Z,100240.59
2022-11-03T09:11:01.773Z,100248.69
2022-11-03T09:13:29.430Z,100223.94
2022-11-03T09:15:58.439Z,100215.28
2022-11-03T09:18:26.051Z,100223.00
2022-11-03T09:20:53.704Z,100228.84
2022-11-03T09:23:21.802Z,100216.91
2022-11-03T09:25:49.469Z,100222.38
2022-11-03T09:28:17.108Z,100226.75
2022-11-03T09:30:44.723Z,100210.22
2022-11-03T09:33:13.732Z,100206.28
2022-11-03T09:35:41.820Z,100205.59
2022-11-03T09:38:09.940Z,100195.66
2022-11-03T09:40:37.895Z,100187.66
2022-11-03T09:43:06.176Z,100185.38
2022-11-03T09:45:34.069Z,100165.16
2022-11-03T09:48:02.363Z,100169.81
2022-11-03T09:50:32.816Z,100166.47
2022-11-03T09:53:00.552Z,100155.63
2022-11-03T09:55:28.728Z,100153.56
2022-11-03T09:57:56.882Z,100152.03
2022-11-03T10:00:26.840Z,100152.91
2022-11-03T10:02:55.128Z,100158.97
2022-11-03T10:05:25.955Z,100136.13
2022-11-03T10:07:58.794Z,100123.81
2022-11-03T10:10:26.890Z,100123.94
2022-11-03T10:12:55.214Z,100120.25
2022-11-03T10:15:23.926Z,100120.75
2022-11-03T10:17:51.795Z,100105.97
2022-11-03T10:20:21.376Z,100109.56
2022-11-03T10:22:52.615Z,100097.25
2022-11-03T10:25:35.299Z,100094.69
2022-11-03T10:28:20.784Z,100096.41
2022-11-03T10:31:12.684Z,100077.59
2022-11-03T10:33:42.339Z,100080.78
2022-11-03T10:36:24.670Z,100070.28
2022-11-03T10:38:52.688Z,100047.44
2022-11-03T10:41:23.143Z,100060.44
2022-11-03T10:44:05.919Z,100031.13
2022-11-03T10:46:50.383Z,100023.22
2022-11-03T10:49:20.654Z,100007.88
2022-11-03T10:51:50.522Z,100006.31
2022-11-03T10:54:19.355Z,100017.53
2022-11-03T10:56:49.489Z,100003.38
2022-11-03T10:59:19.469Z,100007.59
2022-11-03T11:01:47.491Z,100002.66
2022-11-03T11:04:16.959Z,99995.94
2022-11-03T11:06:45.008Z,99991.88
2022-11-03T11:09:14.443Z,99984.16
2022-11-03T11:11:59.867Z,99962.88
2022-11-03T11:14:37.944Z,99967.91
2022-11-03T11:17:06.304Z,99974.34
2022-11-03T11:20:06.348Z,99956.09
2022-11-03T11:22:34.010Z,99952.44
2022-11-03T11:25:03.404Z,99947.72
2022-11-03T11:28:00.379Z,99951.94
2022-11-03T11:31:04.800Z,99952.69
2022-11-03T11:33:35.101Z,99929.78
2022-11-03T11:36:20.157Z,99940.22
2022-11-03T11:39:05.973Z,99925.94
2022-11-03T11:42:08.565Z,99927.97
2022-11-03T11:44:58.328Z,99918.56
2022-11-03T11:47:46.952Z,99895.31
2022-11-03T11:50:23.520Z,99900.34
2022-11-03T11:52:56.738Z,99902.91
2022-11-03T11:55:30.803Z,99897.97
2022-11-03T11:57:59.528Z,99869.50
2022-11-03T12:00:29.423Z,99895.34
2022-11-03T12:02:57.541Z,99889.59
2022-11-03T12:05:28.196Z,99879.81
2022-11-03T12:07:56.430Z,99891.16
2022-11-03T12:10:27.139Z,99853.59
2022-11-03T12:12:55.179Z,99872.25
2022-11-03T12:15:51.487Z,99854.97
2022-11-03T12:18:40.177Z,99853.28
2022-11-03T12:21:13.887Z,99844.19
2022-11-03T12:23:43.071Z,99836.03
2022-11-03T12:26:16.845Z,99829.44
2022-11-03T12:28:44.880Z,99815.19
2022-11-03T12:31:13.052Z,99822.41
2022-11-03T12:33:41.357Z,99817.41
2022-11-03T12:36:10.783Z,99826.81
2022-11-03T12:38:38.482Z,99814.13
2022-11-03T12:41:20.063Z,99813.44
2022-11-03T12:43:48.280Z,99809.59
2022-11-03T12:46:16.713Z,99806.00
2022-11-03T12:48:44.784Z,99783.28
2022-11-03T12:51:14.900Z,99781.47
2022-11-03T12:53:42.645Z,99758.69
2022-11-03T12:56:10.980Z,99761.69
2022-11-03T12:58:38.889Z,99761.69
2022-11-03T13:01:07.486Z,99739.16
2022-11-03T13:03:36.154Z,99757.22
2022-11-03T13:06:04.896Z,99731.94
2022-11-03T13:08:34.031Z,99735.94
2022-11-03T13:11:01.920Z,99741.06
2022-11-03T13:13:29.585Z,99724.25
2022-11-03T13:15:57.331Z,99714.72
2022-11-03T13:18:24.973Z,99706.13
2022-11-03T13:20:52.644Z,99707.63
2022-11-03T13:23:23.078Z,99707.03
2022-11-03T13:25:52.356Z,99689.44
2022-11-03T13:28:20.038Z,99708.13
2022-11-03T13:30:49.108Z,99705.06
2022-11-03T13:33:16.725Z,99705.44
2022-11-03T13:35:44.368Z,99709.94
2022-11-03T13:38:12.072Z,99678.94
2022-11-03T13:40:56.430Z,99657.19
2022-11-03T13:43:27.092Z,99660.91
2022-11-03T13:45:54.722Z,99637.38
2022-11-03T13:49:20.055Z,99638.13
2022-11-03T13:51:12.014Z,99641.72
2022-11-03T13:56:28.121Z,99647.00
2022-11-03T14:01:45.267Z,99620.06
2022-11-03T14:07:00.747Z,99621.75
2022-11-03T14:09:28.490Z,99611.47
2022-11-03T14:12:13.753Z,99603.22
2022-11-03T14:14:43.268Z,99612.50
2022-11-03T14:17:10.983Z,99595.44
2022-11-03T14:19:43.988Z,99589.94
2022-11-03T14:22:13.785Z,99575.22
2022-11-03T14:24:41.438Z,99581.22
2022-11-03T14:27:09.137Z,99565.91
2022-11-03T14:29:36.772Z,99558.81
2022-11-03T14:32:06.896Z,99541.72
2022-11-03T14:34:34.627Z,99560.25
2022-11-03T14:37:02.339Z,99545.75
2022-11-03T14:39:30.105Z,99545.06
2022-11-03T14:42:05.701Z,99537.28
2022-11-03T14:44:34.333Z,99517.56
2022-11-03T14:47:02.704Z,99525.59
2022-11-03T14:49:32.469Z,99528.19
2022-11-03T14:52:01.689Z,99517.53
2022-11-03T14:54:30.771Z,99506.31
2022-11-03T14:56:58.683Z,99501.47
2022-11-03T14:59:26.735Z,99492.31
2022-11-03T15:01:55.223Z,99473.47
2022-11-03T15:04:23.948Z,99479.31
2022-11-03T15:06:52.953Z,99475.16
2022-11-03T15:09:20.622Z,99480.00
2022-11-03T15:11:48.303Z,99478.28
2022-11-03T15:14:15.954Z,99462.63
2022-11-03T15:16:45.930Z,99456.69
2022-11-03T15:19:13.668Z,99458.34
2022-11-03T15:21:41.380Z,99457.09
2022-11-03T15:26:58.228Z,99464.75
2022-11-03T15:29:25.903Z,99454.53
2022-11-03T15:31:53.546Z,99446.56
2022-11-03T15:34:21.369Z,99439.91
2022-11-03T15:36:48.999Z,99445.28
2022-11-03T15:39:18.260Z,99451.97
2022-11-03T15:41:45.902Z,99450.84
2022-11-03T15:44:13.613Z,99451.31
2022-11-03T15:46:41.411Z,99465.75
2022-11-03T15:49:09.265Z,99482.63
2022-11-03T15:51:36.905Z,99497.06
2022-11-03T15:54:04.686Z,99499.34
2022-11-03T15:56:33.713Z,99486.91
2022-11-03T15:59:01.500Z,99479.63
2022-11-03T16:01:29.443Z,99475.28
2022-11-03T16:03:57.279Z,99466.13
2022-11-03T16:06:46.614Z,99473.38
2022-11-03T16:09:12.655Z,99487.97
2022-11-03T16:11:41.632Z,99465.97
2022-11-03T16:14:09.292Z,99461.22
2022-11-03T16:16:36.991Z,99453.97
2022-11-03T16:19:04.675Z,99460.56
2022-11-03T16:21:32.341Z,99453.28
2022-11-03T16:24:00.010Z,99446.72
2022-11-03T16:26:27.648Z,99445.34
2022-11-03T16:28:56.671Z,99442.25
2022-11-03T16:31:24.327Z,99437.66
2022-11-03T16:33:52.052Z,99427.47
2022-11-03T16:36:20.000Z,99422.06
2022-11-03T16:38:47.897Z,99420.50
2022-11-03T16:41:15.826Z,99403.06
2022-11-03T16:43:43.467Z,99407.09
2022-11-03T16:46:12.481Z,99388.00
2022-11-03T16:48:40.101Z,99414.91
2022-11-03T16:51:07.767Z,99395.41
2022-11-03T16:53:35.396Z,99402.22
2022-11-03T16:56:03.016Z,99398.47
2022-11-03T16:58:30.671Z,99393.00
2022-11-03T17:00:58.374Z,99391.34
2022-11-03T17:03:27.412Z,99390.94
2022-11-03T17:05:55.158Z,99390.94
2022-11-03T17:11:10.471Z,99385.91
2022-11-03T17:13:38.109Z,99386.47
2022-11-03T17:16:06.144Z,99386.19
2022-11-03T17:18:35.160Z,99368.19
2022-11-03T17:21:02.841Z,99370.84
2022-11-03T17:23:30.472Z,99380.88
2022-11-03T17:26:00.577Z,99358.84
2022-11-03T17:28:28.240Z,99358.06
2022-11-03T17:30:55.883Z,99349.66
2022-11-03T17:33:23.561Z,99371.69
2022-11-03T17:35:52.604Z,99373.06
2022-11-03T17:38:20.501Z,99364.28
2022-11-03T17:40:49.012Z,99355.78
2022-11-03T17:43:20.335Z,99364.41
2022-11-03T17:45:48.520Z,99345.72
2022-11-03T17:48:16.251Z,99353.25
2022-11-03T17:50:46.713Z,99347.09
2022-11-03T17:53:21.928Z,99347.09
2022-11-03T17:56:09.055Z,99342.22
2022-11-03T17:58:44.915Z,99343.56
2022-11-03T18:01:16.229Z,99349.94
2022-11-03T18:03:44.215Z,99330.03
2022-11-03T18:06:18.969Z,99326.41
2022-11-03T18:08:48.328Z,99335.22
2022-11-03T18:11:35.033Z,99326.41
2022-11-03T18:14:03.642Z,99336.63
2022-11-03T18:16:31.868Z,99320.97
2022-11-03T18:18:59.742Z,99332.28
2022-11-03T18:21:27.748Z,99326.16
2022-11-03T18:23:56.748Z,99321.59
2022-11-03T18:26:25.945Z,99323.13
2022-11-03T18:28:53.868Z,99303.28
2022-11-03T18:31:23.639Z,99308.31
2022-11-03T18:33:51.888Z,99309.31
2022-11-03T18:36:19.996Z,99303.06
2022-11-03T18:38:48.733Z,99290.59
2022-11-03T18:41:39.265Z,99283.16
2022-11-03T18:44:19.140Z,99291.72
2022-11-03T18:46:47.015Z,99287.41
2022-11-03T18:49:14.890Z,99281.34
2022-11-03T18:51:46.405Z,99289.41
2022-11-03T18:54:15.133Z,99271.81
2022-11-03T18:56:44.280Z,99277.13
2022-11-03T18:59:20.319Z,99268.72
2022-11-03T19:01:48.830Z,99259.66
2022-11-03T19:04:16.537Z,99268.19
2022-11-03T19:06:44.896Z,99264.84
2022-11-03T19:09:14.904Z,99271.53
2022-11-03T19:11:44.747Z,99249.50
2022-11-03T19:14:15.683Z,99251.31
2022-11-03T19:17:02.012Z,99252.84
2022-11-03T19:19:31.452Z,99225.53
2022-11-03T19:21:59.176Z,99234.31
2022-11-03T19:24:27.049Z,99232.50
2022-11-03T19:26:58.904Z,99229.47
2022-11-03T19:29:29.432Z,99235.31
2022-11-03T19:31:57.201Z,99242.69
2022-11-03T19:34:26.493Z,99231.41
2022-11-03T19:36:54.314Z,99213.00
2022-11-03T19:39:25.735Z,99212.28
2022-11-03T19:42:11.072Z,99226.00
2022-11-03T19:44:40.100Z,99224.28
2022-11-03T19:47:08.144Z,99214.09
2022-11-03T19:49:35.875Z,99221.91
2022-11-03T19:52:04.467Z,99203.25
2022-11-03T19:54:32.152Z,99213.69
2022-11-03T19:56:59.815Z,99195.03
2022-11-03T19:59:27.486Z,99202.13
2022-11-03T20:01:56.631Z,99199.06
2022-11-03T20:04:24.345Z,99207.66
2022-11-03T20:06:52.021Z,99195.88
2022-11-03T20:09:19.868Z,99202.94
2022-11-03T20:11:47.649Z,99205.19
2022-11-03T20:14:18.960Z,99203.09
2022-11-03T20:16:46.638Z,99198.91
2022-11-03T20:19:15.811Z,99202.97
2022-11-03T20:21:43.974Z,99207.16
2022-11-03T20:24:12.624Z,99204.34
2022-11-03T20:26:40.242Z,99204.91
2022-11-03T20:29:11.983Z,99205.44
2022-11-03T20:31:39.716Z,99190.00
2022-11-03T20:34:07.424Z,99189.44
2022-11-03T20:36:36.412Z,99201.28
2022-11-03T20:39:04.441Z,99214.94
2022-11-03T20:41:32.257Z,99204.63
2022-11-03T20:44:00.151Z,99184.44
2022-11-03T20:46:29.476Z,99192.50
2022-11-03T20:48:57.548Z,99185.13
2022-11-03T20:51:27.087Z,99190.72
2022-11-03T20:53:56.750Z,99200.97
2022-11-03T20:56:26.108Z,99195.44
2022-11-03T20:58:54.274Z,99180.34
2022-11-03T21:01:25.415Z,99182.63
2022-11-03T21:03:59.265Z,99168.66
2022-11-03T21:06:28.612Z,99170.25
2022-11-03T21:08:58.320Z,99163.09
2022-11-03T21:11:30.898Z,99165.88
2022-11-03T21:14:00.254Z,99175.03
2022-11-03T21:16:46.695Z,99160.03
2022-11-03T21:19:36.062Z,99157.66
2022-11-03T21:22:03.774Z,99160.28
2022-11-03T21:24:32.861Z,99174.38
2022-11-03T21:27:00.514Z,99153.06
2022-11-03T21:29:46.013Z,99162.94
2022-11-03T21:32:17.251Z,99173.75
2022-11-03T21:34:45.252Z,99167.25
2022-11-03T21:37:15.076Z,99154.03
2022-11-03T21:39:44.429Z,99163.72
2022-11-03T21:42:30.002Z,99141.75
2022-11-03T21:44:58.682Z,99146.34
2022-11-03T21:47:26.906Z,99139.13
2022-11-03T21:49:53.850Z,99148.19
2022-11-03T21:52:31.830Z,99153.75
2022-11-03T21:55:01.692Z,99159.44
2022-11-03T21:57:29.902Z,99161.16
2022-11-03T21:59:58.958Z,99152.22
2022-11-03T22:02:29.769Z,99154.47
2022-11-03T22:04:57.607Z,99167.53
2022-11-03T22:07:25.348Z,99170.63
2022-11-03T22:09:52.975Z,99180.66
2022-11-03T22:12:22.006Z,99185.28
2022-11-03T22:15:07.196Z,99192.38
2022-11-03T22:17:34.891Z,99188.31
2022-11-03T22:20:20.083Z,99195.16
2022-11-03T22:23:05.427Z,99190.53
2022-11-03T22:25:56.324Z,99186.81
2022-11-03T22:28:25.300Z,99189.44
2022-11-03T22:31:10.716Z,99177.59
2022-11-03T22:33:58.794Z,99160.44
2022-11-03T22:36:25.626Z,99165.97
2022-11-03T22:39:10.767Z,99149.31
2022-11-03T22:41:56.011Z,99150.25
2022-11-03T22:44:42.571Z,99140.25
2022-11-03T22:47:11.333Z,99142.44
2022-11-03T22:49:41.871Z,99147.63
2022-11-03T22:52:11.256Z,99145.53
2022-11-03T22:54:38.918Z,99139.66
2022-11-03T22:57:07.623Z,99130.44
2022-11-03T22:59:37.748Z,99137.63
2022-11-03T23:02:05.534Z,99147.03
2022-11-03T23:04:33.415Z,99139.09
2022-11-03T23:07:01.111Z,99137.16
2022-11-03T23:09:28.824Z,99138.81
2022-11-03T23:11:56.443Z,99141.16
2022-11-03T23:14:44.114Z,99126.19
2022-11-03T23:17:13.153Z,99115.78
2022-11-03T23:19:58.414Z,99133.84
2022-11-03T23:22:26.083Z,99142.31
2022-11-03T23:25:02.009Z,99131.09
2022-11-03T23:27:29.892Z,99138.47
2022-11-03T23:29:57.526Z,99129.28
2022-11-03T23:32:26.560Z,99150.31
2022-11-03T23:34:54.195Z,99140.25
2022-11-03T23:37:21.871Z,99149.56
2022-11-03T23:39:49.517Z,99165.28
2022-11-03T23:42:17.371Z,99163.50
2022-11-03T23:45:02.605Z,99183.19
2022-11-03T23:47:49.276Z,99180.41
2022-11-03T23:50:17.027Z,99157.16
2022-11-03T23:52:44.667Z,99165.84
2022-11-03T23:55:12.295Z,99178.75
2022-11-03T23:57:57.603Z,99190.63
